sensor_id;sensor_type;location;lat;lon;timestamp;P1;durP1;ratioP1;P2;durP2;ratioP2
22949;SDS011;11641;51.018;4.474;2023-04-16T00:01:26;6.90;;;1.70;;
22949;SDS011;11641;51.018;4.474;2023-04-16T00:03:52;11.05;;;2.50;;
22949;SDS011;11641;51.018;4.474;2023-04-16T00:06:21;8.90;;;2.10;;
22949;SDS011;11641;51.018;4.474;2023-04-16T00:08:52;7.32;;;2.22;;
22949;SDS011;11641;51.018;4.474;2023-04-16T00:11:18;10.48;;;2.45;;
22949;SDS011;11641;51.018;4.474;2023-04-16T00:13:43;7.05;;;2.30;;
22949;SDS011;11641;51.018;4.474;2023-04-16T00:16:09;4.55;;;1.80;;
22949;SDS011;11641;51.018;4.474;2023-04-16T00:18:37;3.25;;;1.80;;
22949;SDS011;11641;51.018;4.474;2023-04-16T00:21:03;6.07;;;2.10;;
22949;SDS011;11641;51.018;4.474;2023-04-16T00:23:29;9.40;;;2.10;;
22949;SDS011;11641;51.018;4.474;2023-04-16T00:25:55;9.35;;;2.10;;
22949;SDS011;11641;51.018;4.474;2023-04-16T00:28:23;7.93;;;2.28;;
22949;SDS011;11641;51.018;4.474;2023-04-16T00:30:50;8.55;;;2.35;;
22949;SDS011;11641;51.018;4.474;2023-04-16T00:33:17;5.75;;;2.25;;
22949;SDS011;11641;51.018;4.474;2023-04-16T00:35:46;7.82;;;2.70;;
22949;SDS011;11641;51.018;4.474;2023-04-16T00:38:13;6.97;;;2.55;;
22949;SDS011;11641;51.018;4.474;2023-04-16T00:40:38;7.88;;;2.58;;
22949;SDS011;11641;51.018;4.474;2023-04-16T00:43:07;7.53;;;2.20;;
22949;SDS011;11641;51.018;4.474;2023-04-16T00:45:32;4.05;;;2.10;;
22949;SDS011;11641;51.018;4.474;2023-04-16T00:47:58;7.20;;;2.50;;
22949;SDS011;11641;51.018;4.474;2023-04-16T00:50:25;5.68;;;1.77;;
22949;SDS011;11641;51.018;4.474;2023-04-16T00:52:51;4.15;;;2.03;;
22949;SDS011;11641;51.018;4.474;2023-04-16T00:55:17;3.95;;;1.80;;
22949;SDS011;11641;51.018;4.474;2023-04-16T00:57:45;5.00;;;2.10;;
22949;SDS011;11641;51.018;4.474;2023-04-16T01:00:11;7.53;;;2.20;;
22949;SDS011;11641;51.018;4.474;2023-04-16T01:02:37;4.50;;;2.30;;
22949;SDS011;11641;51.018;4.474;2023-04-16T01:05:03;6.57;;;2.10;;
22949;SDS011;11641;51.018;4.474;2023-04-16T01:07:29;7.88;;;2.97;;
22949;SDS011;11641;51.018;4.474;2023-04-16T01:09:58;5.13;;;2.20;;
22949;SDS011;11641;51.018;4.474;2023-04-16T01:12:23;6.25;;;1.90;;
22949;SDS011;11641;51.018;4.474;2023-04-16T01:14:49;7.65;;;2.17;;
22949;SDS011;11641;51.018;4.474;2023-04-16T01:17:17;4.70;;;2.50;;
22949;SDS011;11641;51.018;4.474;2023-04-16T01:19:42;6.53;;;2.08;;
22949;SDS011;11641;51.018;4.474;2023-04-16T01:22:08;7.38;;;1.98;;
22949;SDS011;11641;51.018;4.474;2023-04-16T01:24:37;7.70;;;1.70;;
22949;SDS011;11641;51.018;4.474;2023-04-16T01:27:03;9.30;;;2.08;;
22949;SDS011;11641;51.018;4.474;2023-04-16T01:29:29;5.10;;;1.50;;
22949;SDS011;11641;51.018;4.474;2023-04-16T01:31:54;4.40;;;1.45;;
22949;SDS011;11641;51.018;4.474;2023-04-16T01:34:20;4.82;;;1.95;;
22949;SDS011;11641;51.018;4.474;2023-04-16T01:36:46;3.53;;;1.48;;
22949;SDS011;11641;51.018;4.474;2023-04-16T01:39:15;6.60;;;1.60;;
22949;SDS011;11641;51.018;4.474;2023-04-16T01:41:43;4.75;;;1.42;;
22949;SDS011;11641;51.018;4.474;2023-04-16T01:44:09;4.88;;;1.35;;
22949;SDS011;11641;51.018;4.474;2023-04-16T01:46:37;3.25;;;1.73;;
22949;SDS011;11641;51.018;4.474;2023-04-16T01:49:03;4.43;;;1.73;;
22949;SDS011;11641;51.018;4.474;2023-04-16T01:51:32;7.38;;;2.03;;
22949;SDS011;11641;51.018;4.474;2023-04-16T01:53:57;7.75;;;2.35;;
22949;SDS011;11641;51.018;4.474;2023-04-16T01:56:25;3.33;;;1.75;;
22949;SDS011;11641;51.018;4.474;2023-04-16T01:58:51;8.00;;;2.08;;
22949;SDS011;11641;51.018;4.474;2023-04-16T02:01:17;4.55;;;1.70;;
22949;SDS011;11641;51.018;4.474;2023-04-16T02:03:46;7.70;;;1.92;;
22949;SDS011;11641;51.018;4.474;2023-04-16T02:06:11;6.82;;;2.20;;
22949;SDS011;11641;51.018;4.474;2023-04-16T02:08:37;9.15;;;2.30;;
22949;SDS011;11641;51.018;4.474;2023-04-16T02:11:03;10.77;;;1.92;;
22949;SDS011;11641;51.018;4.474;2023-04-16T02:13:28;6.18;;;1.73;;
22949;SDS011;11641;51.018;4.474;2023-04-16T02:15:54;8.05;;;2.00;;
22949;SDS011;11641;51.018;4.474;2023-04-16T02:18:20;8.63;;;2.20;;
22949;SDS011;11641;51.018;4.474;2023-04-16T02:20:48;7.00;;;2.60;;
22949;SDS011;11641;51.018;4.474;2023-04-16T02:23:14;8.82;;;2.05;;
22949;SDS011;11641;51.018;4.474;2023-04-16T02:25:44;8.23;;;2.05;;
22949;SDS011;11641;51.018;4.474;2023-04-16T02:28:11;5.82;;;1.70;;
22949;SDS011;11641;51.018;4.474;2023-04-16T02:30:38;5.18;;;1.67;;
22949;SDS011;11641;51.018;4.474;2023-04-16T02:33:05;4.65;;;1.77;;
22949;SDS011;11641;51.018;4.474;2023-04-16T02:35:32;5.60;;;1.70;;
22949;SDS011;11641;51.018;4.474;2023-04-16T02:38:01;2.97;;;1.63;;
22949;SDS011;11641;51.018;4.474;2023-04-16T02:40:28;6.32;;;1.80;;
22949;SDS011;11641;51.018;4.474;2023-04-16T02:42:54;6.78;;;1.75;;
22949;SDS011;11641;51.018;4.474;2023-04-16T02:45:21;8.75;;;1.75;;
22949;SDS011;11641;51.018;4.474;2023-04-16T02:47:47;5.70;;;1.90;;
22949;SDS011;11641;51.018;4.474;2023-04-16T02:50:13;8.73;;;1.85;;
22949;SDS011;11641;51.018;4.474;2023-04-16T02:52:39;8.20;;;2.25;;
22949;SDS011;11641;51.018;4.474;2023-04-16T02:55:05;6.75;;;2.17;;
22949;SDS011;11641;51.018;4.474;2023-04-16T02:57:34;5.88;;;2.42;;
22949;SDS011;11641;51.018;4.474;2023-04-16T02:59:59;5.80;;;2.58;;
22949;SDS011;11641;51.018;4.474;2023-04-16T03:02:25;3.33;;;2.50;;
22949;SDS011;11641;51.018;4.474;2023-04-16T03:04:53;3.92;;;2.53;;
22949;SDS011;11641;51.018;4.474;2023-04-16T03:07:22;9.05;;;3.47;;
22949;SDS011;11641;51.018;4.474;2023-04-16T03:09:47;7.57;;;3.33;;
22949;SDS011;11641;51.018;4.474;2023-04-16T03:12:13;9.68;;;3.88;;
22949;SDS011;11641;51.018;4.474;2023-04-16T03:14:38;7.47;;;2.90;;
22949;SDS011;11641;51.018;4.474;2023-04-16T03:17:04;8.55;;;4.07;;
22949;SDS011;11641;51.018;4.474;2023-04-16T03:19:32;9.63;;;3.88;;
22949;SDS011;11641;51.018;4.474;2023-04-16T03:21:57;7.93;;;4.10;;
22949;SDS011;11641;51.018;4.474;2023-04-16T03:24:23;9.70;;;4.20;;
22949;SDS011;11641;51.018;4.474;2023-04-16T03:26:50;8.30;;;3.75;;
22949;SDS011;11641;51.018;4.474;2023-04-16T03:29:15;14.77;;;4.45;;
22949;SDS011;11641;51.018;4.474;2023-04-16T03:31:41;8.80;;;4.22;;
22949;SDS011;11641;51.018;4.474;2023-04-16T03:34:09;13.80;;;4.38;;
22949;SDS011;11641;51.018;4.474;2023-04-16T03:36:34;13.25;;;4.00;;
22949;SDS011;11641;51.018;4.474;2023-04-16T03:39:00;8.48;;;4.10;;
22949;SDS011;11641;51.018;4.474;2023-04-16T03:41:26;9.95;;;4.10;;
22949;SDS011;11641;51.018;4.474;2023-04-16T03:43:51;8.35;;;3.95;;
22949;SDS011;11641;51.018;4.474;2023-04-16T03:46:17;10.00;;;3.92;;
22949;SDS011;11641;51.018;4.474;2023-04-16T03:48:42;7.35;;;3.85;;
22949;SDS011;11641;51.018;4.474;2023-04-16T03:51:08;10.98;;;3.67;;
22949;SDS011;11641;51.018;4.474;2023-04-16T03:53:34;8.93;;;3.65;;
22949;SDS011;11641;51.018;4.474;2023-04-16T03:55:59;6.88;;;2.80;;
22949;SDS011;11641;51.018;4.474;2023-04-16T03:58:25;12.50;;;3.33;;
22949;SDS011;11641;51.018;4.474;2023-04-16T04:00:54;8.02;;;3.22;;
22949;SDS011;11641;51.018;4.474;2023-04-16T04:03:19;8.50;;;3.40;;
22949;SDS011;11641;51.018;4.474;2023-04-16T04:05:45;9.57;;;3.85;;
22949;SDS011;11641;51.018;4.474;2023-04-16T04:08:10;10.15;;;3.90;;
22949;SDS011;11641;51.018;4.474;2023-04-16T04:10:36;13.00;;;3.88;;
22949;SDS011;11641;51.018;4.474;2023-04-16T04:13:05;8.75;;;3.78;;
22949;SDS011;11641;51.018;4.474;2023-04-16T04:15:33;10.90;;;4.45;;
22949;SDS011;11641;51.018;4.474;2023-04-16T04:17:59;12.85;;;4.70;;
22949;SDS011;11641;51.018;4.474;2023-04-16T04:20:24;9.70;;;5.18;;
22949;SDS011;11641;51.018;4.474;2023-04-16T04:22:50;8.77;;;4.85;;
22949;SDS011;11641;51.018;4.474;2023-04-16T04:25:18;13.38;;;5.55;;
22949;SDS011;11641;51.018;4.474;2023-04-16T04:27:44;10.85;;;4.70;;
22949;SDS011;11641;51.018;4.474;2023-04-16T04:30:10;12.40;;;5.95;;
22949;SDS011;11641;51.018;4.474;2023-04-16T04:32:35;14.70;;;5.22;;
22949;SDS011;11641;51.018;4.474;2023-04-16T04:35:01;11.05;;;5.82;;
22949;SDS011;11641;51.018;4.474;2023-04-16T04:37:28;10.27;;;5.97;;
22949;SDS011;11641;51.018;4.474;2023-04-16T04:39:53;11.27;;;5.72;;
22949;SDS011;11641;51.018;4.474;2023-04-16T04:42:19;9.00;;;5.82;;
22949;SDS011;11641;51.018;4.474;2023-04-16T04:44:46;11.95;;;6.10;;
22949;SDS011;11641;51.018;4.474;2023-04-16T04:47:12;9.00;;;5.85;;
22949;SDS011;11641;51.018;4.474;2023-04-16T04:49:38;9.95;;;5.68;;
22949;SDS011;11641;51.018;4.474;2023-04-16T04:52:04;12.80;;;6.05;;
22949;SDS011;11641;51.018;4.474;2023-04-16T04:54:30;13.13;;;6.13;;
22949;SDS011;11641;51.018;4.474;2023-04-16T04:56:56;15.02;;;5.90;;
22949;SDS011;11641;51.018;4.474;2023-04-16T04:59:22;13.98;;;5.85;;
22949;SDS011;11641;51.018;4.474;2023-04-16T05:01:49;12.75;;;6.18;;
22949;SDS011;11641;51.018;4.474;2023-04-16T05:04:14;13.52;;;5.97;;
22949;SDS011;11641;51.018;4.474;2023-04-16T05:06:40;8.93;;;4.72;;
22949;SDS011;11641;51.018;4.474;2023-04-16T05:09:06;12.48;;;4.78;;
22949;SDS011;11641;51.018;4.474;2023-04-16T05:11:37;11.10;;;4.57;;
22949;SDS011;11641;51.018;4.474;2023-04-16T05:14:04;10.35;;;4.50;;
22949;SDS011;11641;51.018;4.474;2023-04-16T05:16:30;11.38;;;3.38;;
22949;SDS011;11641;51.018;4.474;2023-04-16T05:19:00;6.22;;;2.90;;
22949;SDS011;11641;51.018;4.474;2023-04-16T05:21:25;9.77;;;3.50;;
22949;SDS011;11641;51.018;4.474;2023-04-16T05:23:51;5.60;;;2.70;;
22949;SDS011;11641;51.018;4.474;2023-04-16T05:26:17;10.23;;;3.30;;
22949;SDS011;11641;51.018;4.474;2023-04-16T05:28:45;5.50;;;2.65;;
22949;SDS011;11641;51.018;4.474;2023-04-16T05:31:13;8.23;;;2.88;;
22949;SDS011;11641;51.018;4.474;2023-04-16T05:33:39;9.80;;;3.00;;
22949;SDS011;11641;51.018;4.474;2023-04-16T05:36:05;7.30;;;2.78;;
22949;SDS011;11641;51.018;4.474;2023-04-16T05:38:30;13.07;;;3.15;;
22949;SDS011;11641;51.018;4.474;2023-04-16T05:40:56;8.23;;;2.65;;
22949;SDS011;11641;51.018;4.474;2023-04-16T05:43:22;9.48;;;2.60;;
22949;SDS011;11641;51.018;4.474;2023-04-16T05:45:50;8.82;;;2.03;;
22949;SDS011;11641;51.018;4.474;2023-04-16T05:48:16;7.80;;;2.70;;
22949;SDS011;11641;51.018;4.474;2023-04-16T05:50:44;6.88;;;2.97;;
22949;SDS011;11641;51.018;4.474;2023-04-16T05:53:13;14.38;;;3.85;;
22949;SDS011;11641;51.018;4.474;2023-04-16T05:55:38;16.13;;;3.75;;
22949;SDS011;11641;51.018;4.474;2023-04-16T05:58:04;14.52;;;3.60;;
22949;SDS011;11641;51.018;4.474;2023-04-16T06:00:30;13.30;;;4.05;;
22949;SDS011;11641;51.018;4.474;2023-04-16T06:02:56;10.02;;;4.78;;
22949;SDS011;11641;51.018;4.474;2023-04-16T06:05:23;9.52;;;4.47;;
22949;SDS011;11641;51.018;4.474;2023-04-16T06:07:52;13.48;;;4.53;;
22949;SDS011;11641;51.018;4.474;2023-04-16T06:10:20;14.10;;;5.13;;
22949;SDS011;11641;51.018;4.474;2023-04-16T06:12:46;9.15;;;5.57;;
22949;SDS011;11641;51.018;4.474;2023-04-16T06:15:11;11.68;;;5.97;;
22949;SDS011;11641;51.018;4.474;2023-04-16T06:17:37;14.38;;;6.35;;
22949;SDS011;11641;51.018;4.474;2023-04-16T06:20:03;13.48;;;6.10;;
22949;SDS011;11641;51.018;4.474;2023-04-16T06:22:31;15.73;;;6.95;;
22949;SDS011;11641;51.018;4.474;2023-04-16T06:24:56;17.27;;;7.00;;
22949;SDS011;11641;51.018;4.474;2023-04-16T06:27:22;17.13;;;7.18;;
22949;SDS011;11641;51.018;4.474;2023-04-16T06:29:48;9.93;;;6.40;;
22949;SDS011;11641;51.018;4.474;2023-04-16T06:32:14;17.50;;;6.88;;
22949;SDS011;11641;51.018;4.474;2023-04-16T06:34:41;15.38;;;7.63;;
22949;SDS011;11641;51.018;4.474;2023-04-16T06:37:07;14.82;;;6.78;;
22949;SDS011;11641;51.018;4.474;2023-04-16T06:39:32;13.60;;;6.32;;
22949;SDS011;11641;51.018;4.474;2023-04-16T06:41:58;17.10;;;6.45;;
22949;SDS011;11641;51.018;4.474;2023-04-16T06:44:26;10.20;;;5.63;;
22949;SDS011;11641;51.018;4.474;2023-04-16T06:46:53;9.95;;;4.82;;
22949;SDS011;11641;51.018;4.474;2023-04-16T06:49:21;12.50;;;4.97;;
22949;SDS011;11641;51.018;4.474;2023-04-16T06:51:47;11.20;;;5.15;;
22949;SDS011;11641;51.018;4.474;2023-04-16T06:54:12;12.65;;;5.03;;
22949;SDS011;11641;51.018;4.474;2023-04-16T06:56:38;10.90;;;4.72;;
22949;SDS011;11641;51.018;4.474;2023-04-16T06:59:04;10.82;;;5.38;;
22949;SDS011;11641;51.018;4.474;2023-04-16T07:01:31;10.60;;;5.68;;
22949;SDS011;11641;51.018;4.474;2023-04-16T07:03:57;16.67;;;5.85;;
22949;SDS011;11641;51.018;4.474;2023-04-16T07:06:22;15.40;;;5.60;;
22949;SDS011;11641;51.018;4.474;2023-04-16T07:08:51;10.10;;;5.72;;
22949;SDS011;11641;51.018;4.474;2023-04-16T07:11:17;14.48;;;5.75;;
22949;SDS011;11641;51.018;4.474;2023-04-16T07:13:43;14.25;;;6.07;;
22949;SDS011;11641;51.018;4.474;2023-04-16T07:16:08;11.15;;;6.70;;
22949;SDS011;11641;51.018;4.474;2023-04-16T07:18:34;15.27;;;5.70;;
22949;SDS011;11641;51.018;4.474;2023-04-16T07:21:00;14.25;;;5.95;;
22949;SDS011;11641;51.018;4.474;2023-04-16T07:23:25;15.32;;;7.28;;
22949;SDS011;11641;51.018;4.474;2023-04-16T07:25:52;16.52;;;7.03;;
22949;SDS011;11641;51.018;4.474;2023-04-16T07:28:17;16.92;;;7.18;;
22949;SDS011;11641;51.018;4.474;2023-04-16T07:30:44;16.77;;;6.85;;
22949;SDS011;11641;51.018;4.474;2023-04-16T07:33:11;14.77;;;6.75;;
22949;SDS011;11641;51.018;4.474;2023-04-16T07:35:36;18.70;;;7.70;;
22949;SDS011;11641;51.018;4.474;2023-04-16T07:38:02;18.42;;;8.00;;
22949;SDS011;11641;51.018;4.474;2023-04-16T07:40:30;21.25;;;7.70;;
22949;SDS011;11641;51.018;4.474;2023-04-16T07:42:56;18.73;;;7.45;;
22949;SDS011;11641;51.018;4.474;2023-04-16T07:45:22;16.77;;;7.00;;
22949;SDS011;11641;51.018;4.474;2023-04-16T07:47:48;22.23;;;7.30;;
22949;SDS011;11641;51.018;4.474;2023-04-16T07:50:13;16.92;;;7.65;;
22949;SDS011;11641;51.018;4.474;2023-04-16T07:52:40;13.07;;;7.28;;
22949;SDS011;11641;51.018;4.474;2023-04-16T07:55:10;18.10;;;7.60;;
22949;SDS011;11641;51.018;4.474;2023-04-16T07:57:35;15.77;;;7.18;;
22949;SDS011;11641;51.018;4.474;2023-04-16T08:00:04;14.70;;;7.10;;
22949;SDS011;11641;51.018;4.474;2023-04-16T08:02:33;13.52;;;7.55;;
22949;SDS011;11641;51.018;4.474;2023-04-16T08:04:59;14.07;;;7.05;;
22949;SDS011;11641;51.018;4.474;2023-04-16T08:07:25;21.77;;;7.57;;
22949;SDS011;11641;51.018;4.474;2023-04-16T08:09:51;15.88;;;7.35;;
22949;SDS011;11641;51.018;4.474;2023-04-16T08:12:17;13.40;;;7.95;;
22949;SDS011;11641;51.018;4.474;2023-04-16T08:14:43;15.30;;;7.93;;
22949;SDS011;11641;51.018;4.474;2023-04-16T08:17:09;22.20;;;9.68;;
22949;SDS011;11641;51.018;4.474;2023-04-16T08:19:44;20.95;;;11.15;;
22949;SDS011;11641;51.018;4.474;2023-04-16T08:22:12;18.65;;;10.20;;
22949;SDS011;11641;51.018;4.474;2023-04-16T08:24:38;20.90;;;9.82;;
22949;SDS011;11641;51.018;4.474;2023-04-16T08:27:03;19.13;;;9.45;;
22949;SDS011;11641;51.018;4.474;2023-04-16T08:29:29;24.08;;;11.07;;
22949;SDS011;11641;51.018;4.474;2023-04-16T08:31:55;19.83;;;9.40;;
22949;SDS011;11641;51.018;4.474;2023-04-16T08:34:21;23.95;;;9.50;;
22949;SDS011;11641;51.018;4.474;2023-04-16T08:36:53;19.80;;;10.10;;
22949;SDS011;11641;51.018;4.474;2023-04-16T08:39:20;25.63;;;9.63;;
22949;SDS011;11641;51.018;4.474;2023-04-16T08:41:48;18.58;;;9.32;;
22949;SDS011;11641;51.018;4.474;2023-04-16T08:44:19;18.58;;;9.82;;
22949;SDS011;11641;51.018;4.474;2023-04-16T08:46:49;21.60;;;9.25;;
22949;SDS011;11641;51.018;4.474;2023-04-16T08:49:21;23.60;;;9.52;;
22949;SDS011;11641;51.018;4.474;2023-04-16T08:51:50;20.35;;;9.20;;
22949;SDS011;11641;51.018;4.474;2023-04-16T08:54:42;19.05;;;8.90;;
22949;SDS011;11641;51.018;4.474;2023-04-16T08:57:21;16.25;;;8.43;;
22949;SDS011;11641;51.018;4.474;2023-04-16T08:59:50;17.48;;;9.02;;
22949;SDS011;11641;51.018;4.474;2023-04-16T09:02:18;15.13;;;8.07;;
22949;SDS011;11641;51.018;4.474;2023-04-16T09:04:44;19.52;;;9.35;;
22949;SDS011;11641;51.018;4.474;2023-04-16T09:07:12;13.80;;;8.68;;
22949;SDS011;11641;51.018;4.474;2023-04-16T09:09:40;16.55;;;8.52;;
22949;SDS011;11641;51.018;4.474;2023-04-16T09:12:07;19.63;;;9.35;;
22949;SDS011;11641;51.018;4.474;2023-04-16T09:14:34;15.88;;;7.40;;
22949;SDS011;11641;51.018;4.474;2023-04-16T09:17:08;14.65;;;8.98;;
22949;SDS011;11641;51.018;4.474;2023-04-16T09:19:37;13.15;;;9.07;;
22949;SDS011;11641;51.018;4.474;2023-04-16T09:22:03;19.58;;;9.10;;
22949;SDS011;11641;51.018;4.474;2023-04-16T09:24:28;16.05;;;9.80;;
22949;SDS011;11641;51.018;4.474;2023-04-16T09:26:55;22.90;;;9.60;;
22949;SDS011;11641;51.018;4.474;2023-04-16T09:29:34;15.65;;;8.75;;
22949;SDS011;11641;51.018;4.474;2023-04-16T09:32:01;16.00;;;9.43;;
22949;SDS011;11641;51.018;4.474;2023-04-16T09:34:28;17.92;;;9.07;;
22949;SDS011;11641;51.018;4.474;2023-04-16T09:36:58;16.50;;;8.90;;
22949;SDS011;11641;51.018;4.474;2023-04-16T09:39:42;18.50;;;8.48;;
22949;SDS011;11641;51.018;4.474;2023-04-16T09:42:08;19.90;;;9.18;;
22949;SDS011;11641;51.018;4.474;2023-04-16T09:44:34;16.02;;;8.93;;
22949;SDS011;11641;51.018;4.474;2023-04-16T09:47:06;20.42;;;9.27;;
22949;SDS011;11641;51.018;4.474;2023-04-16T09:49:33;19.85;;;9.45;;
22949;SDS011;11641;51.018;4.474;2023-04-16T09:52:03;17.70;;;8.68;;
22949;SDS011;11641;51.018;4.474;2023-04-16T09:54:38;20.15;;;8.90;;
22949;SDS011;11641;51.018;4.474;2023-04-16T09:57:10;19.13;;;8.50;;
22949;SDS011;11641;51.018;4.474;2023-04-16T09:59:36;16.92;;;8.45;;
22949;SDS011;11641;51.018;4.474;2023-04-16T10:02:02;17.67;;;8.10;;
22949;SDS011;11641;51.018;4.474;2023-04-16T10:04:27;13.05;;;7.82;;
22949;SDS011;11641;51.018;4.474;2023-04-16T10:07:03;16.70;;;7.80;;
22949;SDS011;11641;51.018;4.474;2023-04-16T10:09:36;19.40;;;7.78;;
22949;SDS011;11641;51.018;4.474;2023-04-16T10:12:05;11.60;;;7.15;;
22949;SDS011;11641;51.018;4.474;2023-04-16T10:14:31;19.83;;;7.10;;
22949;SDS011;11641;51.018;4.474;2023-04-16T10:16:59;17.40;;;7.40;;
22949;SDS011;11641;51.018;4.474;2023-04-16T10:19:27;15.25;;;6.35;;
22949;SDS011;11641;51.018;4.474;2023-04-16T10:21:56;17.23;;;7.55;;
22949;SDS011;11641;51.018;4.474;2023-04-16T10:24:27;19.15;;;6.70;;
22949;SDS011;11641;51.018;4.474;2023-04-16T10:26:54;12.05;;;6.70;;
22949;SDS011;11641;51.018;4.474;2023-04-16T10:29:20;19.40;;;7.25;;
22949;SDS011;11641;51.018;4.474;2023-04-16T10:31:46;18.38;;;7.30;;
22949;SDS011;11641;51.018;4.474;2023-04-16T10:34:14;18.17;;;7.25;;
22949;SDS011;11641;51.018;4.474;2023-04-16T10:36:40;16.70;;;7.20;;
22949;SDS011;11641;51.018;4.474;2023-04-16T10:39:09;14.50;;;6.60;;
22949;SDS011;11641;51.018;4.474;2023-04-16T10:41:36;15.43;;;6.82;;
22949;SDS011;11641;51.018;4.474;2023-04-16T10:44:03;13.80;;;6.20;;
22949;SDS011;11641;51.018;4.474;2023-04-16T10:49:01;14.38;;;7.57;;
22949;SDS011;11641;51.018;4.474;2023-04-16T10:51:36;17.42;;;7.13;;
22949;SDS011;11641;51.018;4.474;2023-04-16T10:56:38;21.35;;;7.88;;
22949;SDS011;11641;51.018;4.474;2023-04-16T10:59:04;24.52;;;7.88;;
22949;SDS011;11641;51.018;4.474;2023-04-16T11:01:44;16.58;;;7.57;;
22949;SDS011;11641;51.018;4.474;2023-04-16T11:12:11;17.80;;;7.55;;
22949;SDS011;11641;51.018;4.474;2023-04-16T11:14:39;15.80;;;7.00;;
22949;SDS011;11641;51.018;4.474;2023-04-16T11:17:06;12.82;;;6.68;;
22949;SDS011;11641;51.018;4.474;2023-04-16T11:19:32;16.33;;;7.15;;
22949;SDS011;11641;51.018;4.474;2023-04-16T11:22:01;18.38;;;7.50;;
22949;SDS011;11641;51.018;4.474;2023-04-16T11:24:32;18.23;;;7.38;;
22949;SDS011;11641;51.018;4.474;2023-04-16T11:26:58;14.52;;;6.72;;
22949;SDS011;11641;51.018;4.474;2023-04-16T11:29:24;21.45;;;8.45;;
22949;SDS011;11641;51.018;4.474;2023-04-16T11:31:53;19.95;;;7.72;;
22949;SDS011;11641;51.018;4.474;2023-04-16T11:34:19;15.75;;;7.60;;
22949;SDS011;11641;51.018;4.474;2023-04-16T11:36:46;25.63;;;8.40;;
22949;SDS011;11641;51.018;4.474;2023-04-16T11:39:12;17.00;;;7.82;;
22949;SDS011;11641;51.018;4.474;2023-04-16T11:41:56;16.83;;;8.70;;
22949;SDS011;11641;51.018;4.474;2023-04-16T11:44:23;16.70;;;7.93;;
22949;SDS011;11641;51.018;4.474;2023-04-16T11:46:50;15.18;;;8.45;;
22949;SDS011;11641;51.018;4.474;2023-04-16T11:49:25;14.38;;;7.95;;
22949;SDS011;11641;51.018;4.474;2023-04-16T11:51:52;17.85;;;8.35;;
22949;SDS011;11641;51.018;4.474;2023-04-16T11:54:21;17.45;;;8.75;;
22949;SDS011;11641;51.018;4.474;2023-04-16T11:56:48;25.27;;;9.93;;
22949;SDS011;11641;51.018;4.474;2023-04-16T11:59:16;14.30;;;8.57;;
22949;SDS011;11641;51.018;4.474;2023-04-16T12:01:56;18.40;;;9.25;;
22949;SDS011;11641;51.018;4.474;2023-04-16T12:04:22;18.83;;;9.30;;
22949;SDS011;11641;51.018;4.474;2023-04-16T12:09:39;15.40;;;8.70;;
22949;SDS011;11641;51.018;4.474;2023-04-16T12:12:25;17.65;;;9.27;;
22949;SDS011;11641;51.018;4.474;2023-04-16T12:14:55;22.55;;;8.82;;
22949;SDS011;11641;51.018;4.474;2023-04-16T12:17:24;17.25;;;9.18;;
22949;SDS011;11641;51.018;4.474;2023-04-16T12:19:59;23.75;;;9.73;;
22949;SDS011;11641;51.018;4.474;2023-04-16T12:22:30;18.05;;;9.52;;
22949;SDS011;11641;51.018;4.474;2023-04-16T12:30:12;16.30;;;8.82;;
22949;SDS011;11641;51.018;4.474;2023-04-16T12:32:45;17.13;;;8.57;;
22949;SDS011;11641;51.018;4.474;2023-04-16T12:35:12;14.20;;;7.30;;
22949;SDS011;11641;51.018;4.474;2023-04-16T12:37:38;12.82;;;7.50;;
22949;SDS011;11641;51.018;4.474;2023-04-16T12:40:05;17.55;;;7.78;;
22949;SDS011;11641;51.018;4.474;2023-04-16T12:42:31;16.67;;;8.43;;
22949;SDS011;11641;51.018;4.474;2023-04-16T12:45:03;16.17;;;8.65;;
22949;SDS011;11641;51.018;4.474;2023-04-16T12:47:33;14.45;;;8.15;;
22949;SDS011;11641;51.018;4.474;2023-04-16T12:49:58;16.75;;;9.00;;
22949;SDS011;11641;51.018;4.474;2023-04-16T12:52:24;18.13;;;8.80;;
22949;SDS011;11641;51.018;4.474;2023-04-16T12:54:53;19.38;;;9.73;;
22949;SDS011;11641;51.018;4.474;2023-04-16T12:57:20;16.10;;;8.00;;
22949;SDS011;11641;51.018;4.474;2023-04-16T12:59:47;16.75;;;8.27;;
22949;SDS011;11641;51.018;4.474;2023-04-16T13:02:13;15.10;;;8.23;;
22949;SDS011;11641;51.018;4.474;2023-04-16T13:04:39;17.25;;;8.73;;
22949;SDS011;11641;51.018;4.474;2023-04-16T13:07:07;17.42;;;8.00;;
22949;SDS011;11641;51.018;4.474;2023-04-16T13:09:32;20.00;;;8.10;;
22949;SDS011;11641;51.018;4.474;2023-04-16T13:11:58;11.82;;;7.20;;
22949;SDS011;11641;51.018;4.474;2023-04-16T13:14:23;15.32;;;9.05;;
22949;SDS011;11641;51.018;4.474;2023-04-16T13:16:51;16.25;;;8.15;;
22949;SDS011;11641;51.018;4.474;2023-04-16T13:19:17;16.20;;;8.52;;
22949;SDS011;11641;51.018;4.474;2023-04-16T13:21:43;16.23;;;8.95;;
22949;SDS011;11641;51.018;4.474;2023-04-16T13:24:08;16.95;;;8.50;;
22949;SDS011;11641;51.018;4.474;2023-04-16T13:26:34;18.48;;;8.85;;
22949;SDS011;11641;51.018;4.474;2023-04-16T13:29:02;21.50;;;8.63;;
22949;SDS011;11641;51.018;4.474;2023-04-16T13:31:28;19.67;;;8.55;;
22949;SDS011;11641;51.018;4.474;2023-04-16T13:33:53;36.80;;;13.73;;
22949;SDS011;11641;51.018;4.474;2023-04-16T13:36:19;20.35;;;9.18;;
22949;SDS011;11641;51.018;4.474;2023-04-16T13:38:45;20.58;;;8.98;;
22949;SDS011;11641;51.018;4.474;2023-04-16T13:41:10;14.48;;;9.25;;
22949;SDS011;11641;51.018;4.474;2023-04-16T13:43:36;13.85;;;8.82;;
22949;SDS011;11641;51.018;4.474;2023-04-16T13:46:02;14.48;;;9.30;;
22949;SDS011;11641;51.018;4.474;2023-04-16T13:48:27;20.40;;;10.95;;
22949;SDS011;11641;51.018;4.474;2023-04-16T13:50:53;18.15;;;9.23;;
22949;SDS011;11641;51.018;4.474;2023-04-16T13:53:19;15.75;;;8.48;;
22949;SDS011;11641;51.018;4.474;2023-04-16T13:55:46;16.88;;;8.30;;
22949;SDS011;11641;51.018;4.474;2023-04-16T13:58:13;14.20;;;8.82;;
22949;SDS011;11641;51.018;4.474;2023-04-16T14:00:39;12.70;;;7.82;;
22949;SDS011;11641;51.018;4.474;2023-04-16T14:03:08;13.57;;;7.97;;
22949;SDS011;11641;51.018;4.474;2023-04-16T14:05:34;16.42;;;8.20;;
22949;SDS011;11641;51.018;4.474;2023-04-16T14:08:00;19.60;;;11.20;;
22949;SDS011;11641;51.018;4.474;2023-04-16T14:10:25;15.88;;;8.70;;
22949;SDS011;11641;51.018;4.474;2023-04-16T14:12:51;17.10;;;7.55;;
22949;SDS011;11641;51.018;4.474;2023-04-16T14:15:17;18.25;;;7.70;;
22949;SDS011;11641;51.018;4.474;2023-04-16T14:17:45;15.52;;;7.93;;
22949;SDS011;11641;51.018;4.474;2023-04-16T14:20:11;12.63;;;7.97;;
22949;SDS011;11641;51.018;4.474;2023-04-16T14:22:38;17.95;;;8.65;;
22949;SDS011;11641;51.018;4.474;2023-04-16T14:25:04;13.25;;;7.80;;
22949;SDS011;11641;51.018;4.474;2023-04-16T14:27:31;21.23;;;12.90;;
22949;SDS011;11641;51.018;4.474;2023-04-16T14:29:58;13.73;;;8.57;;
22949;SDS011;11641;51.018;4.474;2023-04-16T14:32:24;14.10;;;7.97;;
22949;SDS011;11641;51.018;4.474;2023-04-16T14:34:52;13.65;;;8.32;;
22949;SDS011;11641;51.018;4.474;2023-04-16T14:37:18;12.90;;;7.80;;
22949;SDS011;11641;51.018;4.474;2023-04-16T14:39:44;17.77;;;8.85;;
22949;SDS011;11641;51.018;4.474;2023-04-16T14:42:09;14.75;;;8.95;;
22949;SDS011;11641;51.018;4.474;2023-04-16T14:44:35;15.63;;;9.10;;
22949;SDS011;11641;51.018;4.474;2023-04-16T14:47:03;17.33;;;9.07;;
22949;SDS011;11641;51.018;4.474;2023-04-16T14:49:29;13.63;;;9.10;;
22949;SDS011;11641;51.018;4.474;2023-04-16T14:51:55;20.00;;;9.45;;
22949;SDS011;11641;51.018;4.474;2023-04-16T14:54:21;17.83;;;8.90;;
22949;SDS011;11641;51.018;4.474;2023-04-16T14:56:47;14.25;;;7.93;;
22949;SDS011;11641;51.018;4.474;2023-04-16T14:59:13;12.73;;;8.32;;